createdAt,value
2017-05-22T00:00:43.023Z,12.37
2017-05-22T00:01:55.560Z,12.32
2017-05-22T00:03:08.454Z,12.28
2017-05-22T00:04:20.700Z,12.3
2017-05-22T00:05:32.987Z,12.23
2017-05-22T00:06:45.558Z,12.3
2017-05-22T00:07:57.858Z,12.23
2017-05-22T00:09:10.401Z,12.23
2017-05-22T00:10:22.678Z,12.15
2017-05-22T00:11:34.718Z,12.18
2017-05-22T00:12:47.321Z,12.14
2017-05-22T00:13:59.896Z,12.1
2017-05-22T00:15:12.443Z,12.08
2017-05-22T00:16:24.428Z,12.03
2017-05-22T00:17:36.973Z,12.08
2017-05-22T00:18:49.561Z,12.11
2017-05-22T00:20:02.142Z,12.11
2017-05-22T00:21:14.417Z,12.12
2017-05-22T00:22:27.013Z,12.05
2017-05-22T00:23:39.603Z,12
2017-05-22T00:24:52.180Z,11.99
2017-05-22T00:26:04.722Z,11.96
2017-05-22T00:27:17.046Z,12
2017-05-22T00:28:29.592Z,11.97
2017-05-22T00:29:41.857Z,11.99
2017-05-22T00:30:54.428Z,12
2017-05-22T00:32:07.009Z,12
2017-05-22T00:33:19.602Z,11.99
2017-05-22T00:34:31.890Z,11.88
2017-05-22T00:35:44.437Z,11.86
2017-05-22T00:36:56.991Z,11.96
2017-05-22T00:38:09.562Z,11.88
2017-05-22T00:39:22.118Z,11.89
2017-05-22T00:40:34.702Z,11.89
2017-05-22T00:41:46.673Z,11.88
2017-05-22T00:42:59.219Z,11.8
2017-05-22T00:44:11.457Z,11.88
2017-05-22T00:45:24.029Z,11.89
2017-05-22T00:46:36.875Z,11.86
2017-05-22T00:47:49.446Z,11.81
2017-05-22T00:49:02.116Z,11.8
2017-05-22T00:50:14.394Z,11.85
2017-05-22T00:51:26.751Z,11.88
2017-05-22T00:52:39.322Z,11.81
2017-05-22T00:53:51.901Z,11.83
2017-05-22T00:55:04.492Z,11.74
2017-05-22T00:56:16.767Z,11.8
2017-05-22T00:57:29.013Z,11.88
2017-05-22T00:58:41.558Z,11.83
2017-05-22T00:59:53.828Z,11.77
2017-05-22T01:01:06.382Z,11.85
2017-05-22T01:02:18.946Z,11.77
2017-05-22T01:03:31.510Z,11.7
2017-05-22T01:04:44.017Z,11.78
2017-05-22T01:05:56.585Z,11.7
2017-05-22T01:07:08.563Z,11.77
2017-05-22T01:08:21.129Z,11.74
2017-05-22T01:09:33.446Z,11.73
2017-05-22T01:10:46.037Z,11.73
2017-05-22T01:11:58.596Z,11.71
2017-05-22T01:13:10.872Z,11.7
2017-05-22T01:14:23.134Z,11.63
2017-05-22T01:15:35.683Z,11.68
2017-05-22T01:16:48.281Z,11.67
2017-05-22T01:18:00.546Z,11.67
2017-05-22T01:19:13.398Z,11.67
2017-05-22T01:20:25.990Z,11.68
2017-05-22T01:21:38.549Z,11.6
2017-05-22T01:22:51.109Z,11.7
2017-05-22T01:24:03.697Z,11.71
2017-05-22T01:25:15.963Z,11.68
2017-05-22T01:26:28.522Z,11.65
2017-05-22T01:27:40.787Z,11.65
2017-05-22T01:28:53.352Z,11.62
2017-05-22T01:30:05.888Z,11.59
2017-05-22T01:31:18.452Z,11.56
2017-05-22T01:32:30.694Z,11.65
2017-05-22T01:33:43.266Z,11.55
2017-05-22T01:34:55.853Z,11.56
2017-05-22T01:36:08.440Z,11.62
2017-05-22T01:37:21.041Z,11.56
2017-05-22T01:38:32.998Z,11.56
2017-05-22T01:39:45.599Z,11.55
2017-05-22T01:40:58.495Z,11.56
2017-05-22T01:42:10.780Z,11.55
2017-05-22T01:43:23.017Z,11.6
2017-05-22T01:44:34.958Z,11.48
2017-05-22T01:45:47.531Z,11.43
2017-05-22T01:47:00.051Z,11.51
2017-05-22T01:48:12.317Z,11.41
2017-05-22T01:49:24.868Z,11.49
2017-05-22T01:50:37.390Z,11.48
2017-05-22T01:51:49.665Z,11.49
2017-05-22T01:53:02.218Z,11.51
2017-05-22T01:54:14.521Z,11.48
2017-05-22T01:55:26.441Z,11.38
2017-05-22T01:56:39.042Z,11.44
2017-05-22T01:57:51.266Z,11.34
2017-05-22T01:59:03.848Z,11.34
2017-05-22T02:00:16.419Z,11.38
2017-05-22T02:01:28.984Z,11.37
2017-05-22T02:02:41.560Z,11.35
2017-05-22T02:03:54.126Z,11.33
2017-05-22T02:05:06.666Z,11.33
2017-05-22T02:06:18.623Z,11.27
2017-05-22T02:07:31.153Z,11.3
2017-05-22T02:08:43.747Z,11.23
2017-05-22T02:09:56.269Z,11.16
2017-05-22T02:11:08.497Z,11.23
2017-05-22T02:12:21.010Z,11.23
2017-05-22T02:13:33.566Z,11.2
2017-05-22T02:14:46.154Z,11.16
2017-05-22T02:15:58.715Z,11.12
2017-05-22T02:17:11.000Z,11.12
2017-05-22T02:18:23.272Z,11.1
2017-05-22T02:19:35.792Z,11.08
2017-05-22T02:20:48.358Z,11.16
2017-05-22T02:22:00.908Z,11.02
2017-05-22T02:23:13.177Z,10.95
2017-05-22T02:24:25.700Z,11.07
2017-05-22T02:25:38.243Z,11
2017-05-22T02:26:50.820Z,11.04
2017-05-22T02:28:03.094Z,10.9
2017-05-22T02:29:15.420Z,10.86
2017-05-22T02:30:27.949Z,10.92
2017-05-22T02:31:40.443Z,10.89
2017-05-22T02:32:53.026Z,10.94
2017-05-22T02:34:05.629Z,10.79
2017-05-22T02:35:17.932Z,10.79
2017-05-22T02:36:30.445Z,10.72
2017-05-22T02:37:42.716Z,10.76
2017-05-22T02:38:55.244Z,10.79
2017-05-22T02:40:07.809Z,10.8
2017-05-22T02:41:20.369Z,10.72
2017-05-22T02:42:32.908Z,10.69
2017-05-22T02:43:45.181Z,10.65
2017-05-22T02:44:57.752Z,10.62
2017-05-22T02:46:10.269Z,10.58
2017-05-22T02:47:22.854Z,10.62
2017-05-22T02:48:35.389Z,10.57
2017-05-22T02:49:47.334Z,10.49
2017-05-22T02:50:59.935Z,10.45
2017-05-22T02:52:12.158Z,10.46
2017-05-22T02:53:24.729Z,10.45
2017-05-22T02:54:37.003Z,10.48
2017-05-22T02:55:49.529Z,10.43
2017-05-22T02:57:02.107Z,10.38
2017-05-22T02:58:14.704Z,10.39
2017-05-22T02:59:26.976Z,10.39
2017-05-22T03:00:39.547Z,10.41
2017-05-22T03:01:52.069Z,10.3
2017-05-22T03:03:04.641Z,10.25
2017-05-22T03:04:17.210Z,10.31
2017-05-22T03:05:29.455Z,10.31
2017-05-22T03:06:42.024Z,10.24
2017-05-22T03:07:54.833Z,10.28
2017-05-22T03:09:07.374Z,10.17
2017-05-22T03:10:19.937Z,10.1
2017-05-22T03:11:31.910Z,10.15
2017-05-22T03:12:44.503Z,10.1
2017-05-22T03:13:57.075Z,10.12
2017-05-22T03:15:09.689Z,10.18
2017-05-22T03:16:22.250Z,10.12
2017-05-22T03:17:34.514Z,10.15
2017-05-22T03:18:46.785Z,10.15
2017-05-22T03:19:59.332Z,10.12
2017-05-22T03:21:11.884Z,9.99
2017-05-22T03:22:24.110Z,10.05
2017-05-22T03:23:36.394Z,9.94
2017-05-22T03:24:48.938Z,9.99
2017-05-22T03:26:01.185Z,10.05
2017-05-22T03:27:13.113Z,9.97
2017-05-22T03:28:25.676Z,10.02
2017-05-22T03:29:38.571Z,10.02
2017-05-22T03:30:51.137Z,10.03
2017-05-22T03:32:03.699Z,9.97
2017-05-22T03:33:16.303Z,9.91
2017-05-22T03:34:28.865Z,9.94
2017-05-22T03:35:41.384Z,9.94
2017-05-22T03:36:53.949Z,9.92
2017-05-22T03:38:06.486Z,9.84
2017-05-22T03:39:19.022Z,9.9
2017-05-22T03:40:31.286Z,9.85
2017-05-22T03:41:43.799Z,9.87
2017-05-22T03:42:56.332Z,9.88
2017-05-22T03:44:08.877Z,9.88
2017-05-22T03:45:21.152Z,9.84
2017-05-22T03:46:33.697Z,9.84
2017-05-22T03:47:46.262Z,9.88
2017-05-22T03:48:58.831Z,9.82
2017-05-22T03:50:11.055Z,9.91
2017-05-22T03:51:23.634Z,9.87
2017-05-22T03:52:36.244Z,9.84
2017-05-22T03:53:48.791Z,9.88
2017-05-22T03:55:01.318Z,9.91
2017-05-22T03:56:13.907Z,9.84
2017-05-22T03:57:26.511Z,9.87
2017-05-22T03:58:39.050Z,9.87
2017-05-22T03:59:51.629Z,9.9
2017-05-22T04:01:04.166Z,9.9
2017-05-22T04:02:16.712Z,9.91
2017-05-22T04:03:28.926Z,9.92
2017-05-22T04:04:41.479Z,9.91
2017-05-22T04:05:53.999Z,9.95
2017-05-22T04:07:06.564Z,9.94
2017-05-22T04:08:19.423Z,9.95
2017-05-22T04:09:32.043Z,9.94
2017-05-22T04:10:44.286Z,9.95
2017-05-22T04:11:56.854Z,9.99
2017-05-22T04:13:09.462Z,10
2017-05-22T04:14:22.033Z,9.97
2017-05-22T04:15:34.567Z,10.09
2017-05-22T04:16:46.501Z,10.13
2017-05-22T04:17:59.116Z,10.13
2017-05-22T04:19:11.697Z,10.12
2017-05-22T04:20:24.244Z,10.2
2017-05-22T04:21:36.782Z,10.09
2017-05-22T04:22:49.036Z,10.21
2017-05-22T04:24:01.581Z,10.25
2017-05-22T04:25:13.517Z,10.27
2017-05-22T04:26:26.091Z,10.36
2017-05-22T04:27:38.352Z,10.33
2017-05-22T04:28:49.990Z,10.36
2017-05-22T04:30:02.542Z,10.33
2017-05-22T04:31:14.823Z,10.43
2017-05-22T04:32:27.459Z,10.42
2017-05-22T04:33:40.079Z,10.48
2017-05-22T04:34:52.982Z,10.53
2017-05-22T04:36:05.215Z,10.53
2017-05-22T04:37:17.772Z,10.58
2017-05-22T04:38:30.013Z,10.65
2017-05-22T04:39:42.242Z,10.65
2017-05-22T04:40:54.809Z,10.76
2017-05-22T04:42:07.045Z,10.79
2017-05-22T04:43:19.616Z,10.84
2017-05-22T04:44:32.195Z,10.77
2017-05-22T04:45:44.715Z,10.9
2017-05-22T04:46:57.262Z,10.94
2017-05-22T04:48:09.213Z,10.94
2017-05-22T04:49:21.776Z,11.05
2017-05-22T04:50:34.054Z,11.04
2017-05-22T04:51:46.603Z,11.12
2017-05-22T04:52:59.164Z,11.22
2017-05-22T04:54:11.428Z,11.23
2017-05-22T04:55:23.958Z,11.37
2017-05-22T04:56:36.184Z,11.48
2017-05-22T04:57:48.706Z,11.48
2017-05-22T04:59:01.280Z,11.6
2017-05-22T05:00:13.844Z,11.68
2017-05-22T05:01:26.371Z,11.68
2017-05-22T05:02:38.609Z,11.77
2017-05-22T05:03:51.110Z,11.93
2017-05-22T05:05:03.705Z,11.93
2017-05-22T05:06:15.694Z,12.02
2017-05-22T05:07:27.974Z,12.12
2017-05-22T05:08:40.260Z,12.17
2017-05-22T05:09:52.842Z,12.32
2017-05-22T05:11:05.386Z,12.37
2017-05-22T05:12:17.933Z,12.47
2017-05-22T05:13:30.189Z,12.45
2017-05-22T05:14:42.739Z,12.54
2017-05-22T05:15:54.995Z,12.72
2017-05-22T05:17:07.610Z,12.75
2017-05-22T05:18:20.097Z,12.83
2017-05-22T05:19:32.371Z,12.83
2017-05-22T05:20:44.928Z,12.99
2017-05-22T05:21:56.611Z,13.02
2017-05-22T05:23:08.892Z,13.19
2017-05-22T05:24:21.466Z,13.19
2017-05-22T05:25:33.755Z,13.3
2017-05-22T05:26:46.282Z,13.42
2017-05-22T05:27:58.857Z,13.47
2017-05-22T05:29:11.142Z,13.58
2017-05-22T05:30:23.713Z,13.68
2017-05-22T05:31:36.266Z,13.76
2017-05-22T05:32:48.587Z,13.85
2017-05-22T05:34:01.183Z,13.85
2017-05-22T05:35:13.750Z,13.94
2017-05-22T05:36:26.300Z,14.03
2017-05-22T05:37:38.841Z,14.07
2017-05-22T05:38:51.411Z,14.16
2017-05-22T05:40:04.291Z,14.37
2017-05-22T05:41:16.550Z,14.34
2017-05-22T05:42:29.129Z,14.44
2017-05-22T05:43:41.701Z,14.52
2017-05-22T05:44:54.240Z,14.52
2017-05-22T05:46:06.786Z,14.66
2017-05-22T05:47:19.331Z,14.73
2017-05-22T05:48:31.929Z,14.79
2017-05-22T05:49:44.499Z,14.93
2017-05-22T05:50:57.093Z,14.93
2017-05-22T05:52:09.375Z,15
2017-05-22T05:53:21.419Z,15.05
2017-05-22T05:54:33.999Z,15.08
2017-05-22T05:55:46.334Z,15.08
2017-05-22T05:56:58.880Z,15.07
2017-05-22T05:58:11.427Z,15.3
2017-05-22T05:59:23.749Z,15.35
2017-05-22T06:00:36.329Z,15.36
2017-05-22T06:01:48.857Z,15.37
2017-05-22T06:03:01.409Z,15.45
2017-05-22T06:04:13.973Z,15.47
2017-05-22T06:05:26.577Z,15.48
2017-05-22T06:06:39.218Z,15.48
2017-05-22T06:07:51.716Z,15.63
2017-05-22T06:09:04.281Z,15.67
2017-05-22T06:10:16.511Z,15.78
2017-05-22T06:11:29.043Z,15.85
2017-05-22T06:12:41.595Z,15.94
2017-05-22T06:13:53.859Z,15.92
2017-05-22T06:15:06.431Z,16.02
2017-05-22T06:16:19.040Z,16.03
2017-05-22T06:17:31.611Z,16.13
2017-05-22T06:18:44.535Z,16.13
2017-05-22T06:19:57.139Z,16.21
2017-05-22T06:21:09.691Z,16.28
2017-05-22T06:22:21.963Z,16.4
2017-05-22T06:23:34.533Z,16.51
2017-05-22T06:24:46.828Z,16.65
2017-05-22T06:25:59.132Z,16.87
2017-05-22T06:27:11.427Z,17.02
2017-05-22T06:28:24.002Z,17.24
2017-05-22T06:29:36.267Z,17.39
2017-05-22T06:30:48.813Z,17.56
2017-05-22T06:32:01.379Z,17.6
2017-05-22T06:33:13.661Z,17.91
2017-05-22T06:34:26.230Z,18.09
2017-05-22T06:35:38.471Z,18.37
2017-05-22T06:36:51.018Z,18.71
2017-05-22T06:38:03.526Z,19.09
2017-05-22T06:39:16.117Z,19.47
2017-05-22T06:40:28.694Z,19.79
2017-05-22T06:41:40.996Z,20.26
2017-05-22T06:42:53.602Z,20.7
2017-05-22T06:44:06.199Z,21.1
2017-05-22T06:45:18.811Z,21.32
2017-05-22T06:46:31.331Z,21.68
2017-05-22T06:47:43.876Z,22.07
2017-05-22T06:48:55.860Z,22.38
2017-05-22T06:50:08.442Z,22.67
2017-05-22T06:51:20.688Z,22.98
2017-05-22T06:52:33.261Z,23.21
2017-05-22T06:53:45.530Z,23.52
2017-05-22T06:54:56.853Z,23.81
2017-05-22T06:56:09.424Z,24.11
2017-05-22T06:57:21.376Z,24.28
2017-05-22T06:58:33.998Z,24.55
2017-05-22T06:59:46.253Z,24.69
2017-05-22T07:00:58.808Z,24.88
2017-05-22T07:02:11.070Z,25.18
2017-05-22T07:03:23.324Z,25.46
2017-05-22T07:04:35.903Z,25.7
2017-05-22T07:05:48.441Z,25.81
2017-05-22T07:07:00.661Z,26.11
2017-05-22T07:08:13.232Z,26.23
2017-05-22T07:09:25.872Z,26.31
2017-05-22T07:10:38.150Z,26.59
2017-05-22T07:11:50.712Z,26.68
2017-05-22T07:13:03.295Z,26.74
2017-05-22T07:14:15.912Z,26.85
2017-05-22T07:15:28.457Z,26.97
2017-05-22T07:16:41.079Z,27.05
2017-05-22T07:17:53.642Z,27.25
2017-05-22T07:19:06.219Z,27.25
2017-05-22T07:20:18.469Z,27.26
2017-05-22T07:21:31.039Z,27.3
2017-05-22T07:22:43.635Z,27.37
2017-05-22T07:23:56.547Z,27.53
2017-05-22T07:25:08.791Z,27.61
2017-05-22T07:26:21.013Z,27.79
2017-05-22T07:27:33.549Z,27.94
2017-05-22T07:28:46.111Z,28.09
2017-05-22T07:29:58.084Z,28
2017-05-22T07:31:10.307Z,28.09
2017-05-22T07:32:22.582Z,28.2
2017-05-22T07:33:34.822Z,28.27
2017-05-22T07:34:47.367Z,28.38
2017-05-22T07:35:59.966Z,28.56
2017-05-22T07:37:12.558Z,28.64
2017-05-22T07:38:24.811Z,28.78
2017-05-22T07:39:37.374Z,28.71
2017-05-22T07:40:49.982Z,28.55
2017-05-22T07:42:02.248Z,28.68
2017-05-22T07:43:14.823Z,28.75
2017-05-22T07:44:27.101Z,28.77
2017-05-22T07:45:39.061Z,29.02
2017-05-22T07:46:51.327Z,29.22
2017-05-22T07:48:03.871Z,29.3
2017-05-22T07:49:16.455Z,29.46
2017-05-22T07:50:29.138Z,29.37
2017-05-22T07:51:41.434Z,29.31
2017-05-22T07:52:53.756Z,29.37
2017-05-22T07:54:06.329Z,29.46
2017-05-22T07:55:18.871Z,29.62
2017-05-22T07:56:31.443Z,29.62
2017-05-22T07:57:44.040Z,29.71
2017-05-22T07:58:56.014Z,29.69
2017-05-22T08:00:08.264Z,29.87
2017-05-22T08:01:20.880Z,29.95
2017-05-22T08:02:33.147Z,30.01
2017-05-22T08:03:45.722Z,29.68
2017-05-22T08:04:58.275Z,29.76
2017-05-22T08:06:10.867Z,29.79
2017-05-22T08:07:23.414Z,29.64
2017-05-22T08:08:35.970Z,29.68
2017-05-22T08:09:48.541Z,29.74
2017-05-22T08:11:01.062Z,29.3
2017-05-22T08:12:13.609Z,29.42
2017-05-22T08:13:26.153Z,29.25
2017-05-22T08:14:38.742Z,29.2
2017-05-22T08:15:51.337Z,29.3
2017-05-22T08:17:03.916Z,29.4
2017-05-22T08:18:16.201Z,29.46
2017-05-22T08:19:28.498Z,29.18
2017-05-22T08:20:40.780Z,29.34
2017-05-22T08:21:53.314Z,29.4
2017-05-22T08:23:05.590Z,29.5
2017-05-22T08:24:18.193Z,29.61
2017-05-22T08:25:30.789Z,29.69
2017-05-22T08:26:43.389Z,29.8
2017-05-22T08:27:55.636Z,30.03
2017-05-22T08:29:08.267Z,30.08
2017-05-22T08:30:20.828Z,30.14
2017-05-22T08:31:33.393Z,30.17
2017-05-22T08:32:45.706Z,30.13
2017-05-22T08:33:57.698Z,30.05
2017-05-22T08:35:09.964Z,29.95
2017-05-22T08:36:22.261Z,29.62
2017-05-22T08:37:34.185Z,29.57
2017-05-22T08:38:46.207Z,29.42
2017-05-22T08:39:58.789Z,29.16
2017-05-22T08:41:11.066Z,28.96
2017-05-22T08:42:23.663Z,28.87
2017-05-22T08:43:36.241Z,28.72
2017-05-22T08:44:48.240Z,28.4
2017-05-22T08:46:00.819Z,28.23
2017-05-22T08:47:13.438Z,27.94
2017-05-22T08:48:25.093Z,27.93
2017-05-22T08:49:37.687Z,27.83
2017-05-22T08:50:50.284Z,27.67
2017-05-22T08:52:02.282Z,27.5
2017-05-22T08:53:14.536Z,27.43
2017-05-22T08:54:27.121Z,27.4
2017-05-22T08:55:39.067Z,27.08
2017-05-22T08:56:51.042Z,26.98
2017-05-22T08:58:03.621Z,26.91
2017-05-22T08:59:16.199Z,26.96
2017-05-22T09:00:28.763Z,26.88
2017-05-22T09:01:41.355Z,26.74
2017-05-22T09:02:53.969Z,26.76
2017-05-22T09:04:06.573Z,26.7
2017-05-22T09:05:19.165Z,26.36
2017-05-22T09:06:31.463Z,26.18
2017-05-22T09:07:44.027Z,26.03
2017-05-22T09:08:56.267Z,25.85
2017-05-22T09:10:08.212Z,25.88
2017-05-22T09:11:20.757Z,25.71
2017-05-22T09:12:33.329Z,25.7
2017-05-22T09:13:45.999Z,25.51
2017-05-22T09:14:57.979Z,25.61
2017-05-22T09:16:09.974Z,25.63
2017-05-22T09:17:22.476Z,25.61
2017-05-22T09:18:34.765Z,25.52
2017-05-22T09:19:47.095Z,25.37
2017-05-22T09:20:59.366Z,25.33
2017-05-22T09:22:11.921Z,25.25
2017-05-22T09:23:24.481Z,25.3
2017-05-22T09:24:37.047Z,25.34
2017-05-22T09:25:49.598Z,25.48
2017-05-22T09:27:02.145Z,25.55
2017-05-22T09:28:14.425Z,25.58
2017-05-22T09:29:26.664Z,25.59
2017-05-22T09:30:38.928Z,25.7
2017-05-22T09:31:51.196Z,25.71
2017-05-22T09:33:03.745Z,25.8
2017-05-22T09:34:16.014Z,25.93
2017-05-22T09:35:28.576Z,26.24
2017-05-22T09:36:41.131Z,26.48
2017-05-22T09:37:53.435Z,26.6
2017-05-22T09:39:06.028Z,26.64
2017-05-22T09:40:18.599Z,26.86
2017-05-22T09:41:31.193Z,27.19
2017-05-22T09:42:43.726Z,27.38
2017-05-22T09:43:56.300Z,27.67
2017-05-22T09:45:08.875Z,27.91
2017-05-22T09:46:21.495Z,28
2017-05-22T09:47:34.092Z,28.03
2017-05-22T09:48:46.691Z,28.27
2017-05-22T09:49:59.213Z,28.5
2017-05-22T09:51:11.472Z,28.64
2017-05-22T09:52:24.050Z,28.67
2017-05-22T09:53:36.679Z,28.7
2017-05-22T09:54:49.274Z,28.86
2017-05-22T09:56:01.542Z,28.94
2017-05-22T09:57:13.516Z,28.77
2017-05-22T09:58:26.141Z,28.75
2017-05-22T09:59:38.680Z,28.77
2017-05-22T10:00:50.896Z,28.93
2017-05-22T10:02:03.493Z,29.2
2017-05-22T10:03:15.801Z,29.34
2017-05-22T10:04:28.111Z,29.44
2017-05-22T10:05:39.759Z,29.31
2017-05-22T10:06:52.351Z,29.18
2017-05-22T10:08:04.957Z,28.97
2017-05-22T10:09:16.955Z,28.64
2017-05-22T10:10:29.574Z,28.53
2017-05-22T10:11:41.623Z,28.37
2017-05-22T10:12:54.217Z,28.27
2017-05-22T10:14:06.809Z,28.37
2017-05-22T10:15:19.416Z,28.33
2017-05-22T10:16:31.693Z,28.33
2017-05-22T10:17:43.651Z,28.09
2017-05-22T10:18:56.249Z,28
2017-05-22T10:20:08.530Z,27.95
2017-05-22T10:21:20.746Z,27.79
2017-05-22T10:22:32.981Z,27.71
2017-05-22T10:23:45.571Z,27.52
2017-05-22T10:24:58.141Z,27.37
2017-05-22T10:26:10.429Z,27.3
2017-05-22T10:27:23.026Z,27.28
2017-05-22T10:28:35.646Z,27.26
2017-05-22T10:29:47.932Z,27.19
2017-05-22T10:31:00.221Z,27.07
2017-05-22T10:32:12.749Z,27.15
2017-05-22T10:33:25.329Z,27.08
2017-05-22T10:34:37.302Z,27.15
2017-05-22T10:35:49.857Z,27.28
2017-05-22T10:37:01.537Z,27.37
2017-05-22T10:38:13.804Z,27.61
2017-05-22T10:39:26.482Z,27.81
2017-05-22T10:40:39.111Z,28
2017-05-22T10:41:51.387Z,28.25
2017-05-22T10:43:03.957Z,28.38
2017-05-22T10:44:16.511Z,28.56
2017-05-22T10:45:29.039Z,28.68
2017-05-22T10:46:41.619Z,28.77
2017-05-22T10:47:53.872Z,28.84
2017-05-22T10:49:06.164Z,28.62
2017-05-22T10:50:18.463Z,28.41
2017-05-22T10:51:31.100Z,28.09
2017-05-22T10:52:43.684Z,28.06
2017-05-22T10:53:56.273Z,28.09
2017-05-22T10:55:08.247Z,28.25
2017-05-22T10:56:20.246Z,28.55
2017-05-22T10:57:32.515Z,28.75
2017-05-22T10:58:45.099Z,28.97
2017-05-22T10:59:57.696Z,29.18
2017-05-22T11:01:10.327Z,29.32
2017-05-22T11:02:22.588Z,29.64
2017-05-22T11:03:34.861Z,29.89
2017-05-22T11:04:47.424Z,30.24
2017-05-22T11:05:59.980Z,30.67
2017-05-22T11:07:12.550Z,31.05
2017-05-22T11:08:25.118Z,31.36
2017-05-22T11:09:37.742Z,31.52
2017-05-22T11:10:50.267Z,31.85
2017-05-22T11:12:02.532Z,31.97
2017-05-22T11:13:14.478Z,32.16
2017-05-22T11:14:26.996Z,32.42
2017-05-22T11:15:38.679Z,32.41
2017-05-22T11:16:50.674Z,32.57
2017-05-22T11:18:02.999Z,32.66
2017-05-22T11:19:14.651Z,32.73
2017-05-22T11:20:27.234Z,32.67
2017-05-22T11:21:38.892Z,32.61
2017-05-22T11:22:51.437Z,32.45
2017-05-22T11:24:04.015Z,32.44
2017-05-22T11:25:16.272Z,32.6
2017-05-22T11:26:28.882Z,32.72
2017-05-22T11:27:41.181Z,32.86
2017-05-22T11:28:53.182Z,32.93
2017-05-22T11:30:05.487Z,32.98
2017-05-22T11:31:18.040Z,33.26
2017-05-22T11:32:30.623Z,33.44
2017-05-22T11:33:43.210Z,33.44
2017-05-22T11:34:55.185Z,33.6
2017-05-22T11:36:07.777Z,33.76
2017-05-22T11:37:20.355Z,33.95
2017-05-22T11:38:32.946Z,34.11
2017-05-22T11:39:45.300Z,34.33
2017-05-22T11:40:57.251Z,34.58
2017-05-22T11:42:09.786Z,34.62
2017-05-22T11:43:21.782Z,34.71
2017-05-22T11:44:33.795Z,34.93
2017-05-22T11:45:46.122Z,34.98
2017-05-22T11:46:58.394Z,35.12
2017-05-22T11:48:10.966Z,35.1
2017-05-22T11:49:23.606Z,35.16
2017-05-22T11:50:36.157Z,35.04
2017-05-22T11:51:48.739Z,35.19
2017-05-22T11:53:00.724Z,35.37
2017-05-22T11:54:13.014Z,35.42
2017-05-22T11:55:25.565Z,35.59
2017-05-22T11:56:37.886Z,35.78
2017-05-22T11:57:50.505Z,35.9
2017-05-22T11:59:02.770Z,35.96
2017-05-22T12:00:14.820Z,36.18
2017-05-22T12:01:27.462Z,36.28
2017-05-22T12:02:39.766Z,36.35
2017-05-22T12:03:52.039Z,36.39
2017-05-22T12:05:04.326Z,36.6
2017-05-22T12:06:16.299Z,36.78
2017-05-22T12:07:28.574Z,36.94
2017-05-22T12:08:41.181Z,37.11
2017-05-22T12:09:53.192Z,37.09
2017-05-22T12:11:05.734Z,37.19
2017-05-22T12:12:18.009Z,37.23
2017-05-22T12:13:30.610Z,37.38
2017-05-22T12:14:43.161Z,37.37
2017-05-22T12:15:55.750Z,37.31
2017-05-22T12:17:08.309Z,37.22
2017-05-22T12:18:20.606Z,37.03
2017-05-22T12:19:33.170Z,37.14
2017-05-22T12:20:45.425Z,37.22
2017-05-22T12:21:57.397Z,37.14
2017-05-22T12:23:10.003Z,37.19
2017-05-22T12:24:22.273Z,37.31
2017-05-22T12:25:34.836Z,37.43
2017-05-22T12:26:47.120Z,37.29
2017-05-22T12:27:59.411Z,37.11
2017-05-22T12:29:11.687Z,37.21
2017-05-22T12:30:23.991Z,37.25
2017-05-22T12:31:36.278Z,37.09
2017-05-22T12:32:48.839Z,37.14
2017-05-22T12:34:01.473Z,36.94
2017-05-22T12:35:13.774Z,36.87
2017-05-22T12:36:26.388Z,36.88
2017-05-22T12:37:38.965Z,36.88
2017-05-22T12:38:51.293Z,36.67
2017-05-22T12:40:03.876Z,36.65
2017-05-22T12:41:15.864Z,36.53
2017-05-22T12:42:28.149Z,36.5
2017-05-22T12:43:40.738Z,36.59
2017-05-22T12:44:53.015Z,36.66
2017-05-22T12:46:05.269Z,36.59
2017-05-22T12:47:17.841Z,36.73
2017-05-22T12:48:30.477Z,36.65
2017-05-22T12:49:43.094Z,36.55
2017-05-22T12:50:55.095Z,36.41
2017-05-22T12:52:07.402Z,36.17
2017-05-22T12:53:19.994Z,35.82
2017-05-22T12:54:32.591Z,35.32
2017-05-22T12:55:44.887Z,34.79
2017-05-22T12:56:56.887Z,34.48
2017-05-22T12:58:09.489Z,34
2017-05-22T12:59:21.466Z,33.75
2017-05-22T13:00:33.739Z,33.42
2017-05-22T13:01:46.287Z,33.39
2017-05-22T13:02:58.566Z,33.42
2017-05-22T13:04:10.833Z,33.53
2017-05-22T13:05:23.084Z,33.48
2017-05-22T13:06:35.653Z,33.31
2017-05-22T13:07:48.270Z,33.33
2017-05-22T13:09:00.553Z,33.39
2017-05-22T13:10:12.830Z,33.47
2017-05-22T13:11:25.378Z,33.33
2017-05-22T13:12:37.925Z,33.03
2017-05-22T13:13:50.500Z,32.78
2017-05-22T13:15:03.073Z,32.61
2017-05-22T13:16:15.671Z,32.42
2017-05-22T13:17:28.305Z,32.23
2017-05-22T13:18:40.895Z,32
2017-05-22T13:19:53.191Z,31.95
2017-05-22T13:21:05.420Z,31.85
2017-05-22T13:22:17.359Z,31.92
2017-05-22T13:23:29.684Z,32.01
2017-05-22T13:24:42.314Z,31.97
2017-05-22T13:25:55.001Z,31.93
2017-05-22T13:27:07.673Z,31.92
2017-05-22T13:28:19.942Z,31.82
2017-05-22T13:29:32.223Z,31.78
2017-05-22T13:30:44.835Z,31.72
2017-05-22T13:31:56.818Z,31.74
2017-05-22T13:33:09.409Z,31.87
2017-05-22T13:34:21.951Z,31.92
2017-05-22T13:35:34.563Z,31.82
2017-05-22T13:36:46.901Z,31.9
2017-05-22T13:37:59.187Z,31.98
2017-05-22T13:39:11.800Z,31.98
2017-05-22T13:40:24.092Z,32.08
2017-05-22T13:41:36.392Z,32.19
2017-05-22T13:42:48.679Z,32.3
2017-05-22T13:44:01.334Z,32.31
2017-05-22T13:45:13.863Z,32.34
2017-05-22T13:46:26.410Z,32.45
2017-05-22T13:47:39.021Z,32.41
2017-05-22T13:48:51.607Z,32.45
2017-05-22T13:50:03.628Z,32.45
2017-05-22T13:51:16.241Z,32.64
2017-05-22T13:52:28.861Z,32.76
2017-05-22T13:53:41.189Z,32.75
2017-05-22T13:54:53.436Z,32.68
2017-05-22T13:56:05.706Z,32.68
2017-05-22T13:57:18.014Z,32.59
2017-05-22T13:58:29.994Z,32.54
2017-05-22T13:59:42.557Z,32.42
2017-05-22T14:00:54.215Z,32.2
2017-05-22T14:02:06.771Z,31.97
2017-05-22T14:03:19.072Z,31.54
2017-05-22T14:04:31.697Z,31.44
2017-05-22T14:05:43.661Z,31.07
2017-05-22T14:06:55.913Z,30.85
2017-05-22T14:08:08.251Z,30.61
2017-05-22T14:09:20.504Z,30.48
2017-05-22T14:10:33.084Z,30.35
2017-05-22T14:11:45.683Z,30.39
2017-05-22T14:12:57.992Z,30.24
2017-05-22T14:14:10.293Z,30.14
2017-05-22T14:15:22.885Z,30.31
2017-05-22T14:16:35.460Z,30.44
2017-05-22T14:17:48.052Z,30.67
2017-05-22T14:19:00.322Z,30.62
2017-05-22T14:20:12.319Z,30.71
2017-05-22T14:21:24.890Z,30.83
2017-05-22T14:22:37.443Z,30.91
2017-05-22T14:23:50.073Z,31.04
2017-05-22T14:25:02.028Z,31.13
2017-05-22T14:26:14.574Z,31.36
2017-05-22T14:27:26.825Z,31.44
2017-05-22T14:28:39.097Z,31.54
2017-05-22T14:29:51.704Z,31.72
2017-05-22T14:31:03.989Z,31.73
2017-05-22T14:32:16.260Z,31.72
2017-05-22T14:33:28.548Z,31.73
2017-05-22T14:34:41.112Z,31.69
2017-05-22T14:35:53.415Z,31.48
2017-05-22T14:37:05.723Z,31.44
2017-05-22T14:38:18.340Z,31.17
2017-05-22T14:39:30.902Z,31.05
2017-05-22T14:40:43.160Z,30.89
2017-05-22T14:41:55.408Z,30.62
2017-05-22T14:43:07.678Z,30.38
2017-05-22T14:44:20.242Z,30.29
2017-05-22T14:45:32.838Z,29.95
2017-05-22T14:46:45.127Z,29.83
2017-05-22T14:47:57.136Z,29.57
2017-05-22T14:49:09.405Z,29.31
2017-05-22T14:50:21.641Z,29.09
2017-05-22T14:51:33.614Z,28.94
2017-05-22T14:52:46.151Z,28.7
2017-05-22T14:53:58.103Z,28.41
2017-05-22T14:55:10.374Z,28.28
2017-05-22T14:56:22.946Z,28.16
2017-05-22T14:57:35.510Z,28.06
2017-05-22T14:58:47.813Z,27.9
2017-05-22T15:00:00.102Z,27.85
2017-05-22T15:01:12.380Z,27.76
2017-05-22T15:02:24.933Z,27.71
2017-05-22T15:03:37.483Z,27.52
2017-05-22T15:04:49.486Z,27.41
2017-05-22T15:06:02.097Z,27.26
2017-05-22T15:07:14.708Z,27.19
2017-05-22T15:08:27.265Z,27.03
2017-05-22T15:09:39.850Z,26.74
2017-05-22T15:10:52.421Z,26.67
2017-05-22T15:12:03.786Z,26.55
2017-05-22T15:13:16.346Z,26.55
2017-05-22T15:14:28.972Z,26.46
2017-05-22T15:15:41.282Z,26.24
2017-05-22T15:16:53.583Z,26.22
2017-05-22T15:18:06.198Z,26.22
2017-05-22T15:19:18.161Z,26.18
2017-05-22T15:20:30.367Z,26.08
2017-05-22T15:21:42.884Z,25.98
2017-05-22T15:22:54.587Z,25.93
2017-05-22T15:24:06.851Z,25.85
2017-05-22T15:25:19.429Z,25.78
2017-05-22T15:26:31.671Z,25.8
2017-05-22T15:27:44.240Z,25.71
2017-05-22T15:28:56.778Z,25.62
2017-05-22T15:30:08.689Z,25.68
2017-05-22T15:31:21.251Z,25.52
2017-05-22T15:32:33.551Z,25.39
2017-05-22T15:33:46.074Z,25.36
2017-05-22T15:34:58.608Z,25.21
2017-05-22T15:36:10.568Z,25.12
2017-05-22T15:37:23.132Z,25.07
2017-05-22T15:38:35.396Z,24.96